sensor_id;sensor_type;location;lat;lon;timestamp;P1;durP1;ratioP1;P2;durP2;ratioP2
72261;SDS011;60173;52.112;8.648;2022-07-11T00:01:09;6.93;;;4.00;;
72261;SDS011;60173;52.112;8.648;2022-07-11T00:03:36;4.53;;;3.20;;
72261;SDS011;60173;52.112;8.648;2022-07-11T00:06:02;10.57;;;4.10;;
72261;SDS011;60173;52.112;8.648;2022-07-11T00:08:29;5.70;;;3.92;;
72261;SDS011;60173;52.112;8.648;2022-07-11T00:10:55;5.47;;;4.05;;
72261;SDS011;60173;52.112;8.648;2022-07-11T00:13:21;7.25;;;4.45;;
72261;SDS011;60173;52.112;8.648;2022-07-11T00:15:48;10.45;;;4.43;;
72261;SDS011;60173;52.112;8.648;2022-07-11T00:18:14;6.03;;;4.00;;
72261;SDS011;60173;52.112;8.648;2022-07-11T00:20:41;6.43;;;4.00;;
72261;SDS011;60173;52.112;8.648;2022-07-11T00:23:07;10.18;;;4.30;;
72261;SDS011;60173;52.112;8.648;2022-07-11T00:25:33;6.13;;;3.65;;
72261;SDS011;60173;52.112;8.648;2022-07-11T00:28:00;7.03;;;4.18;;
72261;SDS011;60173;52.112;8.648;2022-07-11T00:30:26;8.70;;;3.78;;
72261;SDS011;60173;52.112;8.648;2022-07-11T00:32:52;5.25;;;4.10;;
72261;SDS011;60173;52.112;8.648;2022-07-11T00:35:19;9.38;;;4.70;;
72261;SDS011;60173;52.112;8.648;2022-07-11T00:37:45;8.32;;;3.80;;
72261;SDS011;60173;52.112;8.648;2022-07-11T00:40:12;12.90;;;4.88;;
72261;SDS011;60173;52.112;8.648;2022-07-11T00:42:38;5.32;;;4.20;;
72261;SDS011;60173;52.112;8.648;2022-07-11T00:45:05;6.97;;;4.22;;
72261;SDS011;60173;52.112;8.648;2022-07-11T00:47:31;7.50;;;4.03;;
72261;SDS011;60173;52.112;8.648;2022-07-11T00:49:58;5.25;;;3.67;;
72261;SDS011;60173;52.112;8.648;2022-07-11T00:52:24;7.78;;;4.07;;
72261;SDS011;60173;52.112;8.648;2022-07-11T00:54:51;7.78;;;4.53;;
72261;SDS011;60173;52.112;8.648;2022-07-11T00:57:18;5.90;;;3.90;;
72261;SDS011;60173;52.112;8.648;2022-07-11T00:59:45;7.40;;;4.10;;
72261;SDS011;60173;52.112;8.648;2022-07-11T01:02:12;7.43;;;4.13;;
72261;SDS011;60173;52.112;8.648;2022-07-11T01:04:38;5.25;;;4.07;;
72261;SDS011;60173;52.112;8.648;2022-07-11T01:07:05;8.65;;;4.50;;
72261;SDS011;60173;52.112;8.648;2022-07-11T01:09:31;10.52;;;4.57;;
72261;SDS011;60173;52.112;8.648;2022-07-11T01:11:58;5.85;;;4.68;;
72261;SDS011;60173;52.112;8.648;2022-07-11T01:14:24;9.30;;;4.60;;
72261;SDS011;60173;52.112;8.648;2022-07-11T01:16:50;6.57;;;4.20;;
72261;SDS011;60173;52.112;8.648;2022-07-11T01:19:17;10.57;;;4.53;;
72261;SDS011;60173;52.112;8.648;2022-07-11T01:21:45;11.15;;;4.07;;
72261;SDS011;60173;52.112;8.648;2022-07-11T01:24:15;6.15;;;3.90;;
72261;SDS011;60173;52.112;8.648;2022-07-11T01:26:48;8.57;;;4.65;;
72261;SDS011;60173;52.112;8.648;2022-07-11T01:29:16;6.07;;;4.25;;
72261;SDS011;60173;52.112;8.648;2022-07-11T01:31:43;6.50;;;4.35;;
72261;SDS011;60173;52.112;8.648;2022-07-11T01:34:10;6.93;;;4.55;;
72261;SDS011;60173;52.112;8.648;2022-07-11T01:36:37;6.40;;;4.65;;
72261;SDS011;60173;52.112;8.648;2022-07-11T01:39:04;8.30;;;4.13;;
72261;SDS011;60173;52.112;8.648;2022-07-11T01:41:30;9.13;;;4.53;;
72261;SDS011;60173;52.112;8.648;2022-07-11T01:43:57;11.13;;;4.85;;
72261;SDS011;60173;52.112;8.648;2022-07-11T01:46:23;10.15;;;4.85;;
72261;SDS011;60173;52.112;8.648;2022-07-11T01:48:50;8.90;;;4.30;;
72261;SDS011;60173;52.112;8.648;2022-07-11T01:51:17;7.97;;;4.20;;
72261;SDS011;60173;52.112;8.648;2022-07-11T01:53:44;6.95;;;4.32;;
72261;SDS011;60173;52.112;8.648;2022-07-11T01:56:11;8.95;;;4.40;;
72261;SDS011;60173;52.112;8.648;2022-07-11T01:58:51;8.10;;;3.83;;
72261;SDS011;60173;52.112;8.648;2022-07-11T02:01:17;7.40;;;4.63;;
72261;SDS011;60173;52.112;8.648;2022-07-11T02:03:43;10.05;;;4.97;;
72261;SDS011;60173;52.112;8.648;2022-07-11T02:06:11;8.40;;;4.70;;
72261;SDS011;60173;52.112;8.648;2022-07-11T02:08:37;7.45;;;4.50;;
72261;SDS011;60173;52.112;8.648;2022-07-11T02:11:04;12.63;;;5.40;;
72261;SDS011;60173;52.112;8.648;2022-07-11T02:13:30;9.20;;;5.15;;
72261;SDS011;60173;52.112;8.648;2022-07-11T02:15:57;15.68;;;4.70;;
72261;SDS011;60173;52.112;8.648;2022-07-11T02:18:23;12.25;;;5.25;;
72261;SDS011;60173;52.112;8.648;2022-07-11T02:20:50;10.70;;;5.07;;
72261;SDS011;60173;52.112;8.648;2022-07-11T02:23:17;10.40;;;5.13;;
72261;SDS011;60173;52.112;8.648;2022-07-11T02:25:44;12.15;;;5.03;;
72261;SDS011;60173;52.112;8.648;2022-07-11T02:28:12;7.10;;;4.13;;
72261;SDS011;60173;52.112;8.648;2022-07-11T02:30:40;12.70;;;5.50;;
72261;SDS011;60173;52.112;8.648;2022-07-11T02:33:07;9.20;;;5.53;;
72261;SDS011;60173;52.112;8.648;2022-07-11T02:35:34;14.57;;;5.50;;
72261;SDS011;60173;52.112;8.648;2022-07-11T02:38:01;10.15;;;4.18;;
72261;SDS011;60173;52.112;8.648;2022-07-11T02:40:27;6.88;;;5.22;;
72261;SDS011;60173;52.112;8.648;2022-07-11T02:42:54;7.43;;;5.15;;
72261;SDS011;60173;52.112;8.648;2022-07-11T02:45:20;9.38;;;5.43;;
72261;SDS011;60173;52.112;8.648;2022-07-11T02:47:47;8.20;;;5.60;;
72261;SDS011;60173;52.112;8.648;2022-07-11T02:50:13;9.25;;;5.35;;
72261;SDS011;60173;52.112;8.648;2022-07-11T02:52:41;10.65;;;5.70;;
72261;SDS011;60173;52.112;8.648;2022-07-11T02:55:08;9.32;;;5.50;;
72261;SDS011;60173;52.112;8.648;2022-07-11T02:57:36;7.68;;;5.97;;
72261;SDS011;60173;52.112;8.648;2022-07-11T03:00:04;9.52;;;5.82;;
72261;SDS011;60173;52.112;8.648;2022-07-11T03:02:32;9.48;;;5.82;;
72261;SDS011;60173;52.112;8.648;2022-07-11T03:04:58;8.85;;;6.40;;
72261;SDS011;60173;52.112;8.648;2022-07-11T03:07:25;12.35;;;6.55;;
72261;SDS011;60173;52.112;8.648;2022-07-11T03:09:53;8.57;;;6.40;;
72261;SDS011;60173;52.112;8.648;2022-07-11T03:12:20;10.52;;;6.35;;
72261;SDS011;60173;52.112;8.648;2022-07-11T03:14:46;8.60;;;6.38;;
72261;SDS011;60173;52.112;8.648;2022-07-11T03:17:13;9.88;;;6.70;;
72261;SDS011;60173;52.112;8.648;2022-07-11T03:19:39;11.18;;;6.45;;
72261;SDS011;60173;52.112;8.648;2022-07-11T03:22:05;10.63;;;6.60;;
72261;SDS011;60173;52.112;8.648;2022-07-11T03:24:32;9.20;;;6.63;;
72261;SDS011;60173;52.112;8.648;2022-07-11T03:26:58;10.50;;;6.60;;
72261;SDS011;60173;52.112;8.648;2022-07-11T03:29:24;13.38;;;7.55;;
72261;SDS011;60173;52.112;8.648;2022-07-11T03:31:51;14.50;;;8.48;;
72261;SDS011;60173;52.112;8.648;2022-07-11T03:34:17;11.70;;;7.53;;
72261;SDS011;60173;52.112;8.648;2022-07-11T03:36:44;12.85;;;9.27;;
72261;SDS011;60173;52.112;8.648;2022-07-11T03:39:10;11.77;;;8.10;;
72261;SDS011;60173;52.112;8.648;2022-07-11T03:41:36;14.68;;;8.88;;
72261;SDS011;60173;52.112;8.648;2022-07-11T03:44:03;17.95;;;11.23;;
72261;SDS011;60173;52.112;8.648;2022-07-11T03:46:29;14.52;;;9.50;;
72261;SDS011;60173;52.112;8.648;2022-07-11T03:48:56;14.88;;;9.02;;
72261;SDS011;60173;52.112;8.648;2022-07-11T03:51:22;18.92;;;9.75;;
72261;SDS011;60173;52.112;8.648;2022-07-11T03:53:49;15.77;;;10.48;;
72261;SDS011;60173;52.112;8.648;2022-07-11T03:56:15;14.10;;;10.55;;
72261;SDS011;60173;52.112;8.648;2022-07-11T03:58:42;14.88;;;10.40;;
72261;SDS011;60173;52.112;8.648;2022-07-11T04:01:09;15.27;;;9.43;;
72261;SDS011;60173;52.112;8.648;2022-07-11T04:03:35;15.63;;;9.85;;
72261;SDS011;60173;52.112;8.648;2022-07-11T04:06:01;21.05;;;11.60;;
72261;SDS011;60173;52.112;8.648;2022-07-11T04:08:28;19.85;;;12.77;;
72261;SDS011;60173;52.112;8.648;2022-07-11T04:10:54;20.80;;;13.63;;
72261;SDS011;60173;52.112;8.648;2022-07-11T04:13:21;19.20;;;12.00;;
72261;SDS011;60173;52.112;8.648;2022-07-11T04:15:47;19.95;;;12.50;;
72261;SDS011;60173;52.112;8.648;2022-07-11T04:18:13;20.75;;;13.15;;
72261;SDS011;60173;52.112;8.648;2022-07-11T04:20:40;20.42;;;11.52;;
72261;SDS011;60173;52.112;8.648;2022-07-11T04:23:06;20.38;;;11.90;;
72261;SDS011;60173;52.112;8.648;2022-07-11T04:25:33;15.77;;;11.75;;
72261;SDS011;60173;52.112;8.648;2022-07-11T04:28:00;18.70;;;13.77;;
72261;SDS011;60173;52.112;8.648;2022-07-11T04:30:27;21.63;;;13.40;;
72261;SDS011;60173;52.112;8.648;2022-07-11T04:32:54;17.55;;;11.98;;
72261;SDS011;60173;52.112;8.648;2022-07-11T04:35:21;20.90;;;13.15;;
72261;SDS011;60173;52.112;8.648;2022-07-11T04:37:47;19.98;;;12.13;;
72261;SDS011;60173;52.112;8.648;2022-07-11T04:40:14;27.77;;;12.57;;
72261;SDS011;60173;52.112;8.648;2022-07-11T04:42:40;16.90;;;10.85;;
72261;SDS011;60173;52.112;8.648;2022-07-11T04:45:07;21.08;;;11.85;;
72261;SDS011;60173;52.112;8.648;2022-07-11T04:47:33;18.35;;;12.20;;
72261;SDS011;60173;52.112;8.648;2022-07-11T04:50:00;16.08;;;10.38;;
72261;SDS011;60173;52.112;8.648;2022-07-11T04:52:26;19.73;;;11.73;;
72261;SDS011;60173;52.112;8.648;2022-07-11T04:54:53;14.20;;;9.60;;
72261;SDS011;60173;52.112;8.648;2022-07-11T04:57:20;13.55;;;9.80;;
72261;SDS011;60173;52.112;8.648;2022-07-11T04:59:46;20.80;;;10.18;;
72261;SDS011;60173;52.112;8.648;2022-07-11T05:02:12;15.48;;;9.68;;
72261;SDS011;60173;52.112;8.648;2022-07-11T05:04:39;14.85;;;9.27;;
72261;SDS011;60173;52.112;8.648;2022-07-11T05:07:05;21.02;;;9.98;;
72261;SDS011;60173;52.112;8.648;2022-07-11T05:09:31;16.88;;;9.45;;
72261;SDS011;60173;52.112;8.648;2022-07-11T05:11:58;15.43;;;10.32;;
72261;SDS011;60173;52.112;8.648;2022-07-11T05:14:24;14.68;;;9.30;;
72261;SDS011;60173;52.112;8.648;2022-07-11T05:16:51;17.33;;;10.38;;
72261;SDS011;60173;52.112;8.648;2022-07-11T05:19:17;14.55;;;9.30;;
72261;SDS011;60173;52.112;8.648;2022-07-11T05:21:43;16.05;;;10.00;;
72261;SDS011;60173;52.112;8.648;2022-07-11T05:24:10;12.05;;;8.40;;
72261;SDS011;60173;52.112;8.648;2022-07-11T05:26:36;12.38;;;7.22;;
72261;SDS011;60173;52.112;8.648;2022-07-11T05:29:02;11.68;;;5.90;;
72261;SDS011;60173;52.112;8.648;2022-07-11T05:31:29;13.50;;;6.25;;
72261;SDS011;60173;52.112;8.648;2022-07-11T05:33:55;6.03;;;5.40;;
72261;SDS011;60173;52.112;8.648;2022-07-11T05:36:21;6.63;;;4.90;;
72261;SDS011;60173;52.112;8.648;2022-07-11T05:38:48;8.88;;;5.20;;
72261;SDS011;60173;52.112;8.648;2022-07-11T05:41:14;6.00;;;4.07;;
72261;SDS011;60173;52.112;8.648;2022-07-11T05:43:40;8.52;;;4.43;;
72261;SDS011;60173;52.112;8.648;2022-07-11T05:46:07;8.55;;;4.57;;
72261;SDS011;60173;52.112;8.648;2022-07-11T05:48:34;6.10;;;4.50;;
72261;SDS011;60173;52.112;8.648;2022-07-11T05:51:00;8.52;;;5.47;;
72261;SDS011;60173;52.112;8.648;2022-07-11T05:53:26;6.75;;;4.65;;
72261;SDS011;60173;52.112;8.648;2022-07-11T05:55:53;5.57;;;4.90;;
72261;SDS011;60173;52.112;8.648;2022-07-11T05:58:19;5.47;;;4.32;;
72261;SDS011;60173;52.112;8.648;2022-07-11T06:00:45;7.15;;;4.20;;
72261;SDS011;60173;52.112;8.648;2022-07-11T06:03:12;8.45;;;4.20;;
72261;SDS011;60173;52.112;8.648;2022-07-11T06:05:39;7.97;;;4.10;;
72261;SDS011;60173;52.112;8.648;2022-07-11T06:08:05;4.82;;;3.88;;
72261;SDS011;60173;52.112;8.648;2022-07-11T06:10:31;9.07;;;4.32;;
72261;SDS011;60173;52.112;8.648;2022-07-11T06:12:58;5.72;;;3.80;;
72261;SDS011;60173;52.112;8.648;2022-07-11T06:15:24;4.47;;;3.17;;
72261;SDS011;60173;52.112;8.648;2022-07-11T06:17:51;6.20;;;3.75;;
72261;SDS011;60173;52.112;8.648;2022-07-11T06:20:18;6.15;;;4.70;;
72261;SDS011;60173;52.112;8.648;2022-07-11T06:22:44;5.63;;;3.90;;
72261;SDS011;60173;52.112;8.648;2022-07-11T06:25:10;6.43;;;3.80;;
72261;SDS011;60173;52.112;8.648;2022-07-11T06:27:37;5.55;;;3.10;;
72261;SDS011;60173;52.112;8.648;2022-07-11T06:30:03;5.03;;;2.90;;
72261;SDS011;60173;52.112;8.648;2022-07-11T06:32:30;5.75;;;3.28;;
72261;SDS011;60173;52.112;8.648;2022-07-11T06:34:56;4.78;;;1.70;;
72261;SDS011;60173;52.112;8.648;2022-07-11T06:37:23;5.22;;;1.83;;
72261;SDS011;60173;52.112;8.648;2022-07-11T06:39:49;3.33;;;1.77;;
72261;SDS011;60173;52.112;8.648;2022-07-11T06:42:15;6.03;;;2.55;;
72261;SDS011;60173;52.112;8.648;2022-07-11T06:44:48;6.88;;;2.03;;
72261;SDS011;60173;52.112;8.648;2022-07-11T06:47:14;3.72;;;2.03;;
72261;SDS011;60173;52.112;8.648;2022-07-11T06:49:41;2.63;;;1.85;;
72261;SDS011;60173;52.112;8.648;2022-07-11T06:52:07;2.30;;;1.65;;
72261;SDS011;60173;52.112;8.648;2022-07-11T06:54:33;4.20;;;2.05;;
72261;SDS011;60173;52.112;8.648;2022-07-11T06:57:00;5.53;;;2.25;;
72261;SDS011;60173;52.112;8.648;2022-07-11T06:59:26;2.75;;;2.17;;
72261;SDS011;60173;52.112;8.648;2022-07-11T07:01:52;3.20;;;1.67;;
72261;SDS011;60173;52.112;8.648;2022-07-11T07:04:19;3.53;;;2.00;;
72261;SDS011;60173;52.112;8.648;2022-07-11T07:06:45;4.07;;;2.33;;
72261;SDS011;60173;52.112;8.648;2022-07-11T07:09:11;2.78;;;2.50;;
72261;SDS011;60173;52.112;8.648;2022-07-11T07:11:38;3.90;;;2.38;;
72261;SDS011;60173;52.112;8.648;2022-07-11T07:14:04;4.50;;;2.60;;
72261;SDS011;60173;52.112;8.648;2022-07-11T07:16:31;5.93;;;2.50;;
72261;SDS011;60173;52.112;8.648;2022-07-11T07:18:57;3.63;;;2.20;;
72261;SDS011;60173;52.112;8.648;2022-07-11T07:21:24;2.45;;;2.20;;
72261;SDS011;60173;52.112;8.648;2022-07-11T07:23:50;4.63;;;2.78;;
72261;SDS011;60173;52.112;8.648;2022-07-11T07:26:17;4.70;;;2.65;;
72261;SDS011;60173;52.112;8.648;2022-07-11T07:28:43;5.07;;;3.00;;
72261;SDS011;60173;52.112;8.648;2022-07-11T07:31:10;4.65;;;2.75;;
72261;SDS011;60173;52.112;8.648;2022-07-11T07:33:41;5.75;;;3.17;;
72261;SDS011;60173;52.112;8.648;2022-07-11T07:36:11;6.55;;;3.17;;
72261;SDS011;60173;52.112;8.648;2022-07-11T07:38:37;7.93;;;2.97;;
72261;SDS011;60173;52.112;8.648;2022-07-11T07:41:04;4.05;;;2.63;;
72261;SDS011;60173;52.112;8.648;2022-07-11T07:43:31;4.72;;;2.67;;
72261;SDS011;60173;52.112;8.648;2022-07-11T07:45:57;7.50;;;2.92;;
72261;SDS011;60173;52.112;8.648;2022-07-11T07:48:23;3.40;;;2.55;;
72261;SDS011;60173;52.112;8.648;2022-07-11T07:50:55;6.10;;;2.75;;
72261;SDS011;60173;52.112;8.648;2022-07-11T07:53:21;2.50;;;1.95;;
72261;SDS011;60173;52.112;8.648;2022-07-11T07:55:48;2.80;;;1.52;;
72261;SDS011;60173;52.112;8.648;2022-07-11T07:58:14;2.50;;;1.60;;
72261;SDS011;60173;52.112;8.648;2022-07-11T08:00:41;2.53;;;1.35;;
72261;SDS011;60173;52.112;8.648;2022-07-11T08:03:07;2.22;;;1.35;;
72261;SDS011;60173;52.112;8.648;2022-07-11T08:05:34;2.17;;;1.13;;
72261;SDS011;60173;52.112;8.648;2022-07-11T08:08:01;2.65;;;1.50;;
72261;SDS011;60173;52.112;8.648;2022-07-11T08:10:28;2.30;;;1.05;;
72261;SDS011;60173;52.112;8.648;2022-07-11T08:12:54;3.65;;;1.52;;
72261;SDS011;60173;52.112;8.648;2022-07-11T08:15:20;1.15;;;1.00;;
72261;SDS011;60173;52.112;8.648;2022-07-11T08:17:47;1.35;;;1.25;;
72261;SDS011;60173;52.112;8.648;2022-07-11T08:20:13;1.80;;;1.20;;
72261;SDS011;60173;52.112;8.648;2022-07-11T08:22:40;2.40;;;1.15;;
72261;SDS011;60173;52.112;8.648;2022-07-11T08:25:08;1.75;;;1.00;;
72261;SDS011;60173;52.112;8.648;2022-07-11T08:27:35;0.90;;;0.80;;
72261;SDS011;60173;52.112;8.648;2022-07-11T08:30:05;2.88;;;1.00;;
72261;SDS011;60173;52.112;8.648;2022-07-11T08:32:33;1.30;;;0.82;;
72261;SDS011;60173;52.112;8.648;2022-07-11T08:34:59;3.05;;;1.00;;
72261;SDS011;60173;52.112;8.648;2022-07-11T08:37:26;1.55;;;0.93;;
72261;SDS011;60173;52.112;8.648;2022-07-11T08:39:52;1.40;;;0.90;;
72261;SDS011;60173;52.112;8.648;2022-07-11T08:42:18;1.90;;;0.90;;
72261;SDS011;60173;52.112;8.648;2022-07-11T08:44:45;1.67;;;0.90;;
72261;SDS011;60173;52.112;8.648;2022-07-11T08:47:12;1.08;;;0.70;;
72261;SDS011;60173;52.112;8.648;2022-07-11T08:49:38;1.55;;;0.82;;
72261;SDS011;60173;52.112;8.648;2022-07-11T08:52:06;1.90;;;0.63;;
72261;SDS011;60173;52.112;8.648;2022-07-11T08:54:33;0.82;;;0.80;;
72261;SDS011;60173;52.112;8.648;2022-07-11T08:57:00;3.35;;;1.20;;
72261;SDS011;60173;52.112;8.648;2022-07-11T08:59:27;1.20;;;0.60;;
72261;SDS011;60173;52.112;8.648;2022-07-11T09:01:58;0.90;;;0.73;;
72261;SDS011;60173;52.112;8.648;2022-07-11T09:04:29;1.45;;;0.68;;
72261;SDS011;60173;52.112;8.648;2022-07-11T09:06:55;2.15;;;1.20;;
72261;SDS011;60173;52.112;8.648;2022-07-11T09:09:22;2.25;;;0.85;;
72261;SDS011;60173;52.112;8.648;2022-07-11T09:11:49;0.73;;;0.70;;
72261;SDS011;60173;52.112;8.648;2022-07-11T09:14:20;1.00;;;0.77;;
72261;SDS011;60173;52.112;8.648;2022-07-11T09:17:03;1.15;;;0.73;;
72261;SDS011;60173;52.112;8.648;2022-07-11T09:19:32;2.08;;;0.80;;
72261;SDS011;60173;52.112;8.648;2022-07-11T09:22:02;3.78;;;0.90;;
72261;SDS011;60173;52.112;8.648;2022-07-11T09:24:30;0.75;;;0.60;;
72261;SDS011;60173;52.112;8.648;2022-07-11T09:27:02;4.40;;;0.70;;
72261;SDS011;60173;52.112;8.648;2022-07-11T09:29:36;2.00;;;0.57;;
72261;SDS011;60173;52.112;8.648;2022-07-11T09:32:03;0.73;;;0.57;;
72261;SDS011;60173;52.112;8.648;2022-07-11T09:34:29;0.82;;;0.60;;
72261;SDS011;60173;52.112;8.648;2022-07-11T09:36:56;0.73;;;0.70;;
72261;SDS011;60173;52.112;8.648;2022-07-11T09:39:24;1.10;;;0.85;;
72261;SDS011;60173;52.112;8.648;2022-07-11T09:41:52;0.60;;;0.60;;
72261;SDS011;60173;52.112;8.648;2022-07-11T09:44:21;1.30;;;0.80;;
72261;SDS011;60173;52.112;8.648;2022-07-11T09:46:50;0.80;;;0.65;;
72261;SDS011;60173;52.112;8.648;2022-07-11T09:49:28;0.65;;;0.60;;
72261;SDS011;60173;52.112;8.648;2022-07-11T09:52:05;1.10;;;0.60;;
72261;SDS011;60173;52.112;8.648;2022-07-11T09:54:38;0.55;;;0.50;;
72261;SDS011;60173;52.112;8.648;2022-07-11T09:57:18;2.83;;;0.90;;
72261;SDS011;60173;52.112;8.648;2022-07-11T09:59:45;3.03;;;0.80;;
72261;SDS011;60173;52.112;8.648;2022-07-11T10:02:21;1.23;;;0.80;;
72261;SDS011;60173;52.112;8.648;2022-07-11T10:04:48;0.80;;;0.80;;
72261;SDS011;60173;52.112;8.648;2022-07-11T10:07:16;1.42;;;0.70;;
72261;SDS011;60173;52.112;8.648;2022-07-11T10:09:42;2.33;;;0.68;;
72261;SDS011;60173;52.112;8.648;2022-07-11T10:12:08;0.95;;;0.80;;
72261;SDS011;60173;52.112;8.648;2022-07-11T10:14:36;2.15;;;0.75;;
72261;SDS011;60173;52.112;8.648;2022-07-11T10:17:05;1.92;;;0.63;;
72261;SDS011;60173;52.112;8.648;2022-07-11T10:20:25;0.75;;;0.70;;
72261;SDS011;60173;52.112;8.648;2022-07-11T10:22:50;1.00;;;0.70;;
72261;SDS011;60173;52.112;8.648;2022-07-11T10:25:26;0.98;;;0.70;;
72261;SDS011;60173;52.112;8.648;2022-07-11T10:28:03;1.35;;;0.77;;
72261;SDS011;60173;52.112;8.648;2022-07-11T10:30:44;1.30;;;0.80;;
72261;SDS011;60173;52.112;8.648;2022-07-11T10:33:15;0.85;;;0.77;;
72261;SDS011;60173;52.112;8.648;2022-07-11T10:35:43;2.28;;;0.73;;
72261;SDS011;60173;52.112;8.648;2022-07-11T10:38:11;1.15;;;0.80;;
72261;SDS011;60173;52.112;8.648;2022-07-11T10:43:13;1.25;;;0.70;;
72261;SDS011;60173;52.112;8.648;2022-07-11T10:45:50;1.17;;;0.80;;
72261;SDS011;60173;52.112;8.648;2022-07-11T10:48:21;1.45;;;1.08;;
72261;SDS011;60173;52.112;8.648;2022-07-11T10:50:53;1.15;;;1.00;;
72261;SDS011;60173;52.112;8.648;2022-07-11T10:53:25;0.90;;;0.90;;
72261;SDS011;60173;52.112;8.648;2022-07-11T10:56:02;1.70;;;1.05;;
72261;SDS011;60173;52.112;8.648;2022-07-11T10:59:18;1.83;;;1.35;;
72261;SDS011;60173;52.112;8.648;2022-07-11T11:07:26;1.83;;;1.00;;
72261;SDS011;60173;52.112;8.648;2022-07-11T11:18:29;1.52;;;1.30;;
72261;SDS011;60173;52.112;8.648;2022-07-11T11:23:27;1.63;;;1.27;;
72261;SDS011;60173;52.112;8.648;2022-07-11T11:28:36;5.13;;;1.42;;
72261;SDS011;60173;52.112;8.648;2022-07-11T11:31:04;2.55;;;1.10;;
72261;SDS011;60173;52.112;8.648;2022-07-11T11:33:32;1.77;;;1.20;;
72261;SDS011;60173;52.112;8.648;2022-07-11T11:36:00;1.38;;;1.10;;
72261;SDS011;60173;52.112;8.648;2022-07-11T11:38:35;1.27;;;1.13;;
72261;SDS011;60173;52.112;8.648;2022-07-11T11:41:03;1.45;;;1.00;;
72261;SDS011;60173;52.112;8.648;2022-07-11T11:43:31;3.90;;;1.60;;
72261;SDS011;60173;52.112;8.648;2022-07-11T11:45:57;3.85;;;1.27;;
72261;SDS011;60173;52.112;8.648;2022-07-11T11:48:31;1.40;;;1.27;;
72261;SDS011;60173;52.112;8.648;2022-07-11T11:51:05;1.48;;;1.13;;
72261;SDS011;60173;52.112;8.648;2022-07-11T11:53:43;1.30;;;1.20;;
72261;SDS011;60173;52.112;8.648;2022-07-11T11:56:21;1.77;;;1.45;;
72261;SDS011;60173;52.112;8.648;2022-07-11T11:58:50;1.48;;;1.30;;
72261;SDS011;60173;52.112;8.648;2022-07-11T12:01:21;1.45;;;1.20;;
72261;SDS011;60173;52.112;8.648;2022-07-11T12:03:55;2.40;;;1.27;;
72261;SDS011;60173;52.112;8.648;2022-07-11T12:06:27;1.85;;;1.25;;
72261;SDS011;60173;52.112;8.648;2022-07-11T12:09:01;1.77;;;1.17;;
72261;SDS011;60173;52.112;8.648;2022-07-11T12:11:30;3.72;;;1.33;;
72261;SDS011;60173;52.112;8.648;2022-07-11T12:13:57;2.08;;;1.38;;
72261;SDS011;60173;52.112;8.648;2022-07-11T12:16:25;3.20;;;1.35;;
72261;SDS011;60173;52.112;8.648;2022-07-11T12:18:52;3.70;;;1.75;;
72261;SDS011;60173;52.112;8.648;2022-07-11T12:21:19;1.67;;;1.50;;
72261;SDS011;60173;52.112;8.648;2022-07-11T12:23:45;2.20;;;1.67;;
72261;SDS011;60173;52.112;8.648;2022-07-11T12:26:11;3.75;;;2.22;;
72261;SDS011;60173;52.112;8.648;2022-07-11T12:29:01;1.98;;;1.70;;
72261;SDS011;60173;52.112;8.648;2022-07-11T12:34:18;2.78;;;2.13;;
72261;SDS011;60173;52.112;8.648;2022-07-11T12:36:47;5.95;;;2.03;;
72261;SDS011;60173;52.112;8.648;2022-07-11T12:39:27;2.38;;;2.17;;
72261;SDS011;60173;52.112;8.648;2022-07-11T12:41:54;4.07;;;2.65;;
72261;SDS011;60173;52.112;8.648;2022-07-11T12:44:23;4.10;;;2.15;;
72261;SDS011;60173;52.112;8.648;2022-07-11T12:46:51;3.85;;;2.50;;
72261;SDS011;60173;52.112;8.648;2022-07-11T12:49:17;2.80;;;2.08;;
72261;SDS011;60173;52.112;8.648;2022-07-11T12:51:44;3.13;;;2.28;;
72261;SDS011;60173;52.112;8.648;2022-07-11T12:54:12;2.40;;;2.20;;
72261;SDS011;60173;52.112;8.648;2022-07-11T12:56:44;2.67;;;1.90;;
72261;SDS011;60173;52.112;8.648;2022-07-11T12:59:21;2.47;;;2.10;;
72261;SDS011;60173;52.112;8.648;2022-07-11T13:02:07;3.55;;;1.85;;
72261;SDS011;60173;52.112;8.648;2022-07-11T13:04:39;2.42;;;2.10;;
72261;SDS011;60173;52.112;8.648;2022-07-11T13:09:55;4.75;;;2.10;;
72261;SDS011;60173;52.112;8.648;2022-07-11T13:12:21;3.60;;;2.05;;
72261;SDS011;60173;52.112;8.648;2022-07-11T13:14:47;2.90;;;2.03;;
72261;SDS011;60173;52.112;8.648;2022-07-11T13:17:14;2.97;;;2.00;;
72261;SDS011;60173;52.112;8.648;2022-07-11T13:19:41;1.83;;;1.73;;
72261;SDS011;60173;52.112;8.648;2022-07-11T13:22:08;3.00;;;1.90;;
72261;SDS011;60173;52.112;8.648;2022-07-11T13:24:35;2.10;;;1.90;;
72261;SDS011;60173;52.112;8.648;2022-07-11T13:27:01;3.00;;;2.70;;
72261;SDS011;60173;52.112;8.648;2022-07-11T13:29:28;3.45;;;2.25;;
72261;SDS011;60173;52.112;8.648;2022-07-11T13:31:54;3.00;;;2.45;;
72261;SDS011;60173;52.112;8.648;2022-07-11T13:34:21;3.80;;;2.60;;
72261;SDS011;60173;52.112;8.648;2022-07-11T13:36:47;5.28;;;2.75;;
72261;SDS011;60173;52.112;8.648;2022-07-11T13:39:14;5.28;;;3.58;;
72261;SDS011;60173;52.112;8.648;2022-07-11T13:41:40;2.70;;;2.50;;
72261;SDS011;60173;52.112;8.648;2022-07-11T13:44:06;4.13;;;3.40;;
72261;SDS011;60173;52.112;8.648;2022-07-11T13:46:33;3.50;;;3.20;;
72261;SDS011;60173;52.112;8.648;2022-07-11T13:48:59;3.50;;;3.20;;
72261;SDS011;60173;52.112;8.648;2022-07-11T13:51:26;4.18;;;3.60;;
72261;SDS011;60173;52.112;8.648;2022-07-11T13:53:52;2.97;;;2.67;;
72261;SDS011;60173;52.112;8.648;2022-07-11T13:56:18;3.42;;;2.58;;
72261;SDS011;60173;52.112;8.648;2022-07-11T13:58:45;3.13;;;2.53;;
72261;SDS011;60173;52.112;8.648;2022-07-11T14:01:11;3.10;;;2.80;;
72261;SDS011;60173;52.112;8.648;2022-07-11T14:03:37;3.60;;;2.85;;
72261;SDS011;60173;52.112;8.648;2022-07-11T14:06:04;3.60;;;3.30;;
72261;SDS011;60173;52.112;8.648;2022-07-11T14:08:30;3.70;;;3.30;;
72261;SDS011;60173;52.112;8.648;2022-07-11T14:10:57;3.90;;;3.50;;
72261;SDS011;60173;52.112;8.648;2022-07-11T14:13:24;2.88;;;2.63;;
72261;SDS011;60173;52.112;8.648;2022-07-11T14:15:50;4.00;;;3.20;;
72261;SDS011;60173;52.112;8.648;2022-07-11T14:18:17;3.78;;;3.47;;
72261;SDS011;60173;52.112;8.648;2022-07-11T14:20:44;3.42;;;3.13;;
72261;SDS011;60173;52.112;8.648;2022-07-11T14:23:10;4.97;;;3.65;;
72261;SDS011;60173;52.112;8.648;2022-07-11T14:25:36;5.15;;;3.53;;
72261;SDS011;60173;52.112;8.648;2022-07-11T14:28:03;3.65;;;3.08;;
72261;SDS011;60173;52.112;8.648;2022-07-11T14:30:30;4.32;;;3.83;;
72261;SDS011;60173;52.112;8.648;2022-07-11T14:32:56;7.28;;;4.07;;
72261;SDS011;60173;52.112;8.648;2022-07-11T14:35:23;4.15;;;3.35;;
72261;SDS011;60173;52.112;8.648;2022-07-11T14:37:49;4.20;;;3.80;;
72261;SDS011;60173;52.112;8.648;2022-07-11T14:40:16;4.38;;;3.63;;
72261;SDS011;60173;52.112;8.648;2022-07-11T14:42:43;6.95;;;3.78;;
72261;SDS011;60173;52.112;8.648;2022-07-11T14:45:09;3.78;;;3.33;;
72261;SDS011;60173;52.112;8.648;2022-07-11T14:47:36;4.47;;;3.53;;
72261;SDS011;60173;52.112;8.648;2022-07-11T14:50:03;4.18;;;3.55;;
72261;SDS011;60173;52.112;8.648;2022-07-11T14:52:30;4.20;;;3.78;;
72261;SDS011;60173;52.112;8.648;2022-07-11T14:54:56;3.67;;;3.33;;
72261;SDS011;60173;52.112;8.648;2022-07-11T14:57:23;7.43;;;3.60;;
72261;SDS011;60173;52.112;8.648;2022-07-11T14:59:49;4.05;;;3.47;;
72261;SDS011;60173;52.112;8.648;2022-07-11T15:02:16;4.22;;;3.60;;
72261;SDS011;60173;52.112;8.648;2022-07-11T15:04:42;5.00;;;4.32;;
72261;SDS011;60173;52.112;8.648;2022-07-11T15:07:12;5.10;;;4.38;;
72261;SDS011;60173;52.112;8.648;2022-07-11T15:09:38;4.90;;;4.20;;
72261;SDS011;60173;52.112;8.648;2022-07-11T15:12:05;5.03;;;3.35;;
72261;SDS011;60173;52.112;8.648;2022-07-11T15:14:31;3.30;;;3.00;;